sensor_id;sensor_type;location;lat;lon;timestamp;pressure;altitude;pressure_sealevel;temperature;humidity
79129;BME280;68529;43.286;23.360;2023-06-01T00:00:29;99336.53;;;18.49;67.81
79129;BME280;68529;43.286;23.360;2023-06-01T00:02:55;99326.84;;;18.48;67.75
79129;BME280;68529;43.286;23.360;2023-06-01T00:05:20;99330.25;;;18.50;67.73
79129;BME280;68529;43.286;23.360;2023-06-01T00:07:46;99319.72;;;18.49;67.82
79129;BME280;68529;43.286;23.360;2023-06-01T00:10:12;99328.56;;;18.49;67.62
79129;BME280;68529;43.286;23.360;2023-06-01T00:12:38;99325.78;;;18.51;67.62
79129;BME280;68529;43.286;23.360;2023-06-01T00:15:04;99324.09;;;18.50;67.57
79129;BME280;68529;43.286;23.360;2023-06-01T00:17:29;99322.66;;;18.44;67.62
79129;BME280;68529;43.286;23.360;2023-06-01T00:19:56;99314.94;;;18.40;67.35
79129;BME280;68529;43.286;23.360;2023-06-01T00:22:21;99316.66;;;18.41;67.37
79129;BME280;68529;43.286;23.360;2023-06-01T00:24:49;99310.41;;;18.42;67.30
79129;BME280;68529;43.286;23.360;2023-06-01T00:27:15;99316.00;;;18.37;67.27
79129;BME280;68529;43.286;23.360;2023-06-01T00:29:40;99317.91;;;18.35;67.26
79129;BME280;68529;43.286;23.360;2023-06-01T00:32:06;99318.31;;;18.29;67.29
79129;BME280;68529;43.286;23.360;2023-06-01T00:34:32;99322.41;;;18.21;67.36
79129;BME280;68529;43.286;23.360;2023-06-01T00:36:57;99325.06;;;18.21;67.30
79129;BME280;68529;43.286;23.360;2023-06-01T00:39:23;99321.47;;;18.22;67.36
79129;BME280;68529;43.286;23.360;2023-06-01T00:41:48;99319.50;;;18.11;67.32
79129;BME280;68529;43.286;23.360;2023-06-01T00:44:13;99322.44;;;18.07;67.48
79129;BME280;68529;43.286;23.360;2023-06-01T00:46:39;99327.56;;;18.10;67.34
79129;BME280;68529;43.286;23.360;2023-06-01T00:49:05;99329.97;;;18.00;67.21
79129;BME280;68529;43.286;23.360;2023-06-01T00:51:32;99326.53;;;17.98;67.43
79129;BME280;68529;43.286;23.360;2023-06-01T00:53:58;99335.38;;;17.98;67.69
79129;BME280;68529;43.286;23.360;2023-06-01T00:56:24;99329.97;;;18.00;67.49
79129;BME280;68529;43.286;23.360;2023-06-01T00:58:50;99331.66;;;18.01;67.60
79129;BME280;68529;43.286;23.360;2023-06-01T01:01:15;99331.66;;;18.01;67.36
79129;BME280;68529;43.286;23.360;2023-06-01T01:03:49;99332.50;;;18.01;67.24
79129;BME280;68529;43.286;23.360;2023-06-01T01:11:37;99329.66;;;18.04;67.01
79129;BME280;68529;43.286;23.360;2023-06-01T01:16:39;99327.69;;;17.80;66.90
79129;BME280;68529;43.286;23.360;2023-06-01T01:19:41;99326.09;;;17.77;67.18
79129;BME280;68529;43.286;23.360;2023-06-01T01:28:01;99333.88;;;17.80;67.22
79129;BME280;68529;43.286;23.360;2023-06-01T01:30:32;99332.91;;;17.81;67.18
79129;BME280;68529;43.286;23.360;2023-06-01T01:32:59;99326.75;;;17.67;67.12
79129;BME280;68529;43.286;23.360;2023-06-01T01:35:28;99329.59;;;17.64;67.13
79129;BME280;68529;43.286;23.360;2023-06-01T01:37:54;99336.41;;;17.54;67.29
79129;BME280;68529;43.286;23.360;2023-06-01T01:40:20;99333.06;;;17.36;67.49
79129;BME280;68529;43.286;23.360;2023-06-01T01:42:45;99325.06;;;17.22;67.81
79129;BME280;68529;43.286;23.360;2023-06-01T01:45:12;99334.25;;;17.16;68.08
79129;BME280;68529;43.286;23.360;2023-06-01T01:50:12;99346.31;;;17.22;68.12
79129;BME280;68529;43.286;23.360;2023-06-01T01:52:39;99345.47;;;17.35;68.03
79129;BME280;68529;43.286;23.360;2023-06-01T01:55:07;99346.41;;;17.34;67.75
79129;BME280;68529;43.286;23.360;2023-06-01T01:57:34;99343.00;;;17.32;67.91
79129;BME280;68529;43.286;23.360;2023-06-01T02:00:01;99336.38;;;17.39;67.69
79129;BME280;68529;43.286;23.360;2023-06-01T02:02:27;99343.69;;;17.36;67.42
79129;BME280;68529;43.286;23.360;2023-06-01T02:04:53;99343.56;;;17.37;67.20
79129;BME280;68529;43.286;23.360;2023-06-01T02:07:18;99347.09;;;17.38;67.36
79129;BME280;68529;43.286;23.360;2023-06-01T02:09:44;99336.38;;;17.39;67.18
79129;BME280;68529;43.286;23.360;2023-06-01T02:12:10;99350.25;;;17.44;67.16
79129;BME280;68529;43.286;23.360;2023-06-01T02:14:35;99343.09;;;17.45;67.09
79129;BME280;68529;43.286;23.360;2023-06-01T02:17:01;99353.16;;;17.40;67.25
79129;BME280;68529;43.286;23.360;2023-06-01T02:19:27;99352.28;;;17.39;67.01
79129;BME280;68529;43.286;23.360;2023-06-01T02:21:52;99350.31;;;17.43;67.17
79129;BME280;68529;43.286;23.360;2023-06-01T02:24:18;99351.34;;;17.40;66.88
79129;BME280;68529;43.286;23.360;2023-06-01T02:26:45;99351.72;;;17.34;66.81
79129;BME280;68529;43.286;23.360;2023-06-01T02:29:12;99349.25;;;17.31;66.97
79129;BME280;68529;43.286;23.360;2023-06-01T02:31:38;99352.69;;;17.33;66.93
79129;BME280;68529;43.286;23.360;2023-06-01T02:34:03;99357.72;;;17.38;67.17
79129;BME280;68529;43.286;23.360;2023-06-01T02:36:29;99353.16;;;17.40;67.13
79129;BME280;68529;43.286;23.360;2023-06-01T02:38:58;99356.38;;;17.45;66.92
79129;BME280;68529;43.286;23.360;2023-06-01T02:41:24;99359.22;;;17.42;66.66
79129;BME280;68529;43.286;23.360;2023-06-01T02:43:50;99358.56;;;17.38;66.81
79129;BME280;68529;43.286;23.360;2023-06-01T02:46:19;99357.03;;;17.34;66.67
79129;BME280;68529;43.286;23.360;2023-06-01T02:48:45;99364.25;;;17.32;66.79
79129;BME280;68529;43.286;23.360;2023-06-01T02:51:11;99355.34;;;17.33;67.10
79129;BME280;68529;43.286;23.360;2023-06-01T02:53:41;99363.22;;;17.35;66.70
79129;BME280;68529;43.286;23.360;2023-06-01T02:56:06;99362.16;;;17.37;66.81
79129;BME280;68529;43.286;23.360;2023-06-01T02:58:32;99356.84;;;17.37;66.80
79129;BME280;68529;43.286;23.360;2023-06-01T03:00:57;99365.56;;;17.39;66.79
79129;BME280;68529;43.286;23.360;2023-06-01T03:03:23;99367.59;;;17.36;66.67
79129;BME280;68529;43.286;23.360;2023-06-01T03:05:50;99364.25;;;17.32;66.64
79129;BME280;68529;43.286;23.360;2023-06-01T03:08:15;99366.72;;;17.35;66.76
79129;BME280;68529;43.286;23.360;2023-06-01T03:10:42;99371.94;;;17.37;66.69
79129;BME280;68529;43.286;23.360;2023-06-01T03:13:07;99376.38;;;17.36;66.54
79129;BME280;68529;43.286;23.360;2023-06-01T03:15:33;99372.03;;;17.35;66.61
79129;BME280;68529;43.286;23.360;2023-06-01T03:17:58;99375.44;;;17.37;66.67
79129;BME280;68529;43.286;23.360;2023-06-01T03:20:24;99380.06;;;17.34;66.52
79129;BME280;68529;43.286;23.360;2023-06-01T03:22:50;99378.63;;;17.28;66.63
79129;BME280;68529;43.286;23.360;2023-06-01T03:25:15;99375.22;;;17.26;66.74
79129;BME280;68529;43.286;23.360;2023-06-01T03:27:42;99378.63;;;17.28;66.86
79129;BME280;68529;43.286;23.360;2023-06-01T03:30:08;99376.78;;;17.30;66.83
79129;BME280;68529;43.286;23.360;2023-06-01T03:32:39;99372.22;;;17.32;66.90
79129;BME280;68529;43.286;23.360;2023-06-01T03:35:06;99377.41;;;17.34;66.88
79129;BME280;68529;43.286;23.360;2023-06-01T03:37:40;99379.81;;;17.38;66.79
79129;BME280;68529;43.286;23.360;2023-06-01T03:40:07;99379.63;;;17.41;66.80
79129;BME280;68529;43.286;23.360;2023-06-01T03:42:39;99376.88;;;17.43;66.83
79129;BME280;68529;43.286;23.360;2023-06-01T03:45:05;99375.94;;;17.44;66.78
79129;BME280;68529;43.286;23.360;2023-06-01T03:47:31;99376.59;;;17.47;66.81
79129;BME280;68529;43.286;23.360;2023-06-01T03:49:57;99386.28;;;17.48;66.76
79129;BME280;68529;43.286;23.360;2023-06-01T03:52:25;99374.78;;;17.48;67.04
79129;BME280;68529;43.286;23.360;2023-06-01T03:54:54;99379.91;;;17.51;66.83
79129;BME280;68529;43.286;23.360;2023-06-01T03:57:21;99376.81;;;17.44;66.88
79129;BME280;68529;43.286;23.360;2023-06-01T03:59:46;99382.69;;;17.50;66.78
79129;BME280;68529;43.286;23.360;2023-06-01T04:02:13;99378.22;;;17.50;66.92
79129;BME280;68529;43.286;23.360;2023-06-01T04:04:38;99376.41;;;17.51;66.97
79129;BME280;68529;43.286;23.360;2023-06-01T04:07:06;99379.16;;;17.49;66.92
79129;BME280;68529;43.286;23.360;2023-06-01T04:09:34;99380.09;;;17.48;66.92
79129;BME280;68529;43.286;23.360;2023-06-01T04:12:03;99372.06;;;17.50;67.02
79129;BME280;68529;43.286;23.360;2023-06-01T04:14:28;99380.44;;;17.58;66.82
79129;BME280;68529;43.286;23.360;2023-06-01T04:16:53;99375.81;;;17.61;66.88
79129;BME280;68529;43.286;23.360;2023-06-01T04:19:19;99378.00;;;17.69;66.78
79129;BME280;68529;43.286;23.360;2023-06-01T04:21:44;99385.78;;;17.72;66.69
79129;BME280;68529;43.286;23.360;2023-06-01T04:24:10;99375.53;;;17.80;66.65
79129;BME280;68529;43.286;23.360;2023-06-01T04:26:36;99370.78;;;17.85;66.85
79129;BME280;68529;43.286;23.360;2023-06-01T04:29:02;99381.41;;;17.85;66.68
79129;BME280;68529;43.286;23.360;2023-06-01T04:31:28;99377.63;;;17.89;66.63
79129;BME280;68529;43.286;23.360;2023-06-01T04:33:53;99380.28;;;17.89;66.61
79129;BME280;68529;43.286;23.360;2023-06-01T04:36:22;99379.69;;;17.98;66.85
79129;BME280;68529;43.286;23.360;2023-06-01T04:38:51;99379.03;;;18.09;66.65
79129;BME280;68529;43.286;23.360;2023-06-01T04:41:21;99380.28;;;18.17;66.56
79129;BME280;68529;43.286;23.360;2023-06-01T04:43:48;99374.94;;;18.31;66.72
79129;BME280;68529;43.286;23.360;2023-06-01T04:46:23;99381.00;;;18.33;66.27
79129;BME280;68529;43.286;23.360;2023-06-01T04:48:50;99378.34;;;18.33;66.66
79129;BME280;68529;43.286;23.360;2023-06-01T04:51:20;99380.41;;;18.42;66.81
79129;BME280;68529;43.286;23.360;2023-06-01T04:53:48;99373.88;;;18.48;66.84
79129;BME280;68529;43.286;23.360;2023-06-01T04:56:24;99375.06;;;18.56;66.62
79129;BME280;68529;43.286;23.360;2023-06-01T04:58:55;99376.94;;;18.69;66.30
79129;BME280;68529;43.286;23.360;2023-06-01T05:01:21;99379.09;;;18.76;66.35
79129;BME280;68529;43.286;23.360;2023-06-01T05:03:51;99373.56;;;18.79;66.09
79129;BME280;68529;43.286;23.360;2023-06-01T05:06:19;99374.03;;;18.86;66.56
79129;BME280;68529;43.286;23.360;2023-06-01T05:08:45;99371.50;;;18.97;66.49
79129;BME280;68529;43.286;23.360;2023-06-01T05:11:11;99376.44;;;19.03;66.35
79129;BME280;68529;43.286;23.360;2023-06-01T05:13:40;99368.03;;;19.09;66.03
79129;BME280;68529;43.286;23.360;2023-06-01T05:16:07;99372.63;;;19.19;66.04
79129;BME280;68529;43.286;23.360;2023-06-01T05:18:34;99374.97;;;19.24;65.54
79129;BME280;68529;43.286;23.360;2023-06-01T05:20:59;99369.44;;;19.27;65.60
79129;BME280;68529;43.286;23.360;2023-06-01T05:23:26;99377.16;;;19.32;65.82
79129;BME280;68529;43.286;23.360;2023-06-01T05:25:52;99370.34;;;19.40;65.85
79129;BME280;68529;43.286;23.360;2023-06-01T05:28:20;99367.25;;;19.46;65.45
79129;BME280;68529;43.286;23.360;2023-06-01T05:30:46;99373.91;;;19.53;65.73
79129;BME280;68529;43.286;23.360;2023-06-01T05:33:11;99367.81;;;19.64;65.78
79129;BME280;68529;43.286;23.360;2023-06-01T05:35:37;99369.06;;;19.71;65.72
79129;BME280;68529;43.286;23.360;2023-06-01T05:38:03;99360.44;;;19.80;65.38
79129;BME280;68529;43.286;23.360;2023-06-01T05:40:28;99369.75;;;19.87;65.44
79129;BME280;68529;43.286;23.360;2023-06-01T05:42:53;99371.50;;;19.99;65.25
79129;BME280;68529;43.286;23.360;2023-06-01T05:45:20;99374.41;;;20.09;65.15
79129;BME280;68529;43.286;23.360;2023-06-01T05:47:45;99361.72;;;20.12;65.23
79129;BME280;68529;43.286;23.360;2023-06-01T05:50:10;99366.28;;;20.23;64.81
79129;BME280;68529;43.286;23.360;2023-06-01T05:52:36;99366.19;;;20.24;64.76
79129;BME280;68529;43.286;23.360;2023-06-01T05:55:02;99371.19;;;20.29;64.42
79129;BME280;68529;43.286;23.360;2023-06-01T05:57:27;99376.75;;;20.26;63.93
79129;BME280;68529;43.286;23.360;2023-06-01T05:59:53;99370.56;;;20.25;63.89
79129;BME280;68529;43.286;23.360;2023-06-01T06:02:19;99374.72;;;20.29;63.91
79129;BME280;68529;43.286;23.360;2023-06-01T06:04:45;99372.22;;;20.39;64.16
79129;BME280;68529;43.286;23.360;2023-06-01T06:07:10;99376.69;;;20.51;63.83
79129;BME280;68529;43.286;23.360;2023-06-01T06:09:36;99374.94;;;20.63;63.70
79129;BME280;68529;43.286;23.360;2023-06-01T06:12:02;99379.56;;;20.72;63.32
79129;BME280;68529;43.286;23.360;2023-06-01T06:14:28;99379.13;;;20.78;62.92
79129;BME280;68529;43.286;23.360;2023-06-01T06:16:53;99376.00;;;20.84;63.37
79129;BME280;68529;43.286;23.360;2023-06-01T06:19:18;99371.41;;;20.86;63.40
79129;BME280;68529;43.286;23.360;2023-06-01T06:21:44;99373.03;;;21.00;63.63
79129;BME280;68529;43.286;23.360;2023-06-01T06:24:09;99370.97;;;21.16;63.41
79129;BME280;68529;43.286;23.360;2023-06-01T06:26:35;99371.06;;;21.14;63.68
79129;BME280;68529;43.286;23.360;2023-06-01T06:29:00;99368.81;;;21.21;63.29
79129;BME280;68529;43.286;23.360;2023-06-01T06:31:26;99374.19;;;21.32;63.08
79129;BME280;68529;43.286;23.360;2023-06-01T06:33:51;99365.06;;;21.34;63.54
79129;BME280;68529;43.286;23.360;2023-06-01T06:36:17;99371.31;;;21.46;62.88
79129;BME280;68529;43.286;23.360;2023-06-01T06:38:43;99376.91;;;21.54;62.77
79129;BME280;68529;43.286;23.360;2023-06-01T06:41:08;99378.66;;;21.66;62.27
79129;BME280;68529;43.286;23.360;2023-06-01T06:43:34;99373.56;;;21.74;62.57
79129;BME280;68529;43.286;23.360;2023-06-01T06:46:00;99378.16;;;21.83;62.17
79129;BME280;68529;43.286;23.360;2023-06-01T06:48:25;99381.25;;;21.90;62.23
79129;BME280;68529;43.286;23.360;2023-06-01T06:50:50;99378.47;;;21.91;61.69
79129;BME280;68529;43.286;23.360;2023-06-01T06:53:16;99380.28;;;22.02;62.44
79129;BME280;68529;43.286;23.360;2023-06-01T06:55:43;99373.84;;;22.04;61.95
79129;BME280;68529;43.286;23.360;2023-06-01T06:58:10;99381.16;;;22.14;61.78
79129;BME280;68529;43.286;23.360;2023-06-01T07:00:36;99370.06;;;22.18;60.92
79129;BME280;68529;43.286;23.360;2023-06-01T07:03:02;99375.78;;;22.25;61.03
79129;BME280;68529;43.286;23.360;2023-06-01T07:05:28;99377.63;;;22.13;60.67
79129;BME280;68529;43.286;23.360;2023-06-01T07:07:54;99370.56;;;22.12;60.59
79129;BME280;68529;43.286;23.360;2023-06-01T07:10:19;99367.88;;;22.12;61.24
79129;BME280;68529;43.286;23.360;2023-06-01T07:12:45;99373.94;;;22.03;61.92
79129;BME280;68529;43.286;23.360;2023-06-01T07:15:10;99371.88;;;22.18;61.56
79129;BME280;68529;43.286;23.360;2023-06-01T07:17:35;99367.13;;;22.32;61.11
79129;BME280;68529;43.286;23.360;2023-06-01T07:20:02;99369.69;;;22.34;60.54
79129;BME280;68529;43.286;23.360;2023-06-01T07:22:34;99369.91;;;22.31;60.75
79129;BME280;68529;43.286;23.360;2023-06-01T07:25:00;99376.75;;;22.35;60.34
79129;BME280;68529;43.286;23.360;2023-06-01T07:27:25;99372.34;;;22.34;59.88
79129;BME280;68529;43.286;23.360;2023-06-01T07:29:51;99365.78;;;22.38;61.06
79129;BME280;68529;43.286;23.360;2023-06-01T07:32:21;99365.41;;;22.42;60.73
79129;BME280;68529;43.286;23.360;2023-06-01T07:34:46;99371.13;;;22.49;60.75
79129;BME280;68529;43.286;23.360;2023-06-01T07:37:12;99364.66;;;22.51;60.59
79129;BME280;68529;43.286;23.360;2023-06-01T07:39:37;99368.28;;;22.73;59.72
79129;BME280;68529;43.286;23.360;2023-06-01T07:42:03;99370.81;;;22.85;60.13
79129;BME280;68529;43.286;23.360;2023-06-01T07:44:28;99369.03;;;23.06;60.00
79129;BME280;68529;43.286;23.360;2023-06-01T07:46:53;99362.56;;;23.09;59.28
79129;BME280;68529;43.286;23.360;2023-06-01T07:49:19;99368.22;;;23.06;58.71
79129;BME280;68529;43.286;23.360;2023-06-01T07:51:44;99355.16;;;23.01;58.08
79129;BME280;68529;43.286;23.360;2023-06-01T07:54:10;99353.22;;;23.03;59.10
79129;BME280;68529;43.286;23.360;2023-06-01T07:56:36;99347.47;;;23.08;58.82
79129;BME280;68529;43.286;23.360;2023-06-01T07:59:02;99350.47;;;23.14;58.90
79129;BME280;68529;43.286;23.360;2023-06-01T08:01:28;99341.47;;;23.15;58.57
79129;BME280;68529;43.286;23.360;2023-06-01T08:03:53;99349.44;;;23.27;58.20
79129;BME280;68529;43.286;23.360;2023-06-01T08:06:21;99344.63;;;23.62;59.38
79129;BME280;68529;43.286;23.360;2023-06-01T08:08:48;99344.28;;;23.76;58.54
79129;BME280;68529;43.286;23.360;2023-06-01T08:11:15;99345.91;;;23.88;57.50
79129;BME280;68529;43.286;23.360;2023-06-01T08:13:41;99335.53;;;24.04;56.88
79129;BME280;68529;43.286;23.360;2023-06-01T08:16:06;99339.91;;;24.36;57.32
79129;BME280;68529;43.286;23.360;2023-06-01T08:18:32;99340.53;;;24.58;57.76
79129;BME280;68529;43.286;23.360;2023-06-01T08:20:57;99340.81;;;24.74;56.11
79129;BME280;68529;43.286;23.360;2023-06-01T08:23:26;99340.16;;;24.82;55.72
79129;BME280;68529;43.286;23.360;2023-06-01T08:25:51;99334.63;;;24.93;54.58
79129;BME280;68529;43.286;23.360;2023-06-01T08:28:16;99333.66;;;25.13;54.89
79129;BME280;68529;43.286;23.360;2023-06-01T08:30:42;99332.38;;;25.08;54.05
79129;BME280;68529;43.286;23.360;2023-06-01T08:33:07;99335.22;;;25.06;54.32
79129;BME280;68529;43.286;23.360;2023-06-01T08:35:33;99330.13;;;25.03;53.77
79129;BME280;68529;43.286;23.360;2023-06-01T08:38:00;99331.25;;;24.91;53.76
79129;BME280;68529;43.286;23.360;2023-06-01T08:40:26;99332.66;;;24.76;53.78
79129;BME280;68529;43.286;23.360;2023-06-01T08:43:09;99327.56;;;24.73;53.85
79129;BME280;68529;43.286;23.360;2023-06-01T08:45:37;99333.63;;;24.75;54.47
79129;BME280;68529;43.286;23.360;2023-06-01T08:48:04;99320.47;;;24.72;54.89
79129;BME280;68529;43.286;23.360;2023-06-01T08:50:34;99325.56;;;24.75;55.44
79129;BME280;68529;43.286;23.360;2023-06-01T08:53:01;99323.84;;;24.64;54.35
79129;BME280;68529;43.286;23.360;2023-06-01T08:55:27;99322.00;;;24.55;53.53
79129;BME280;68529;43.286;23.360;2023-06-01T08:57:53;99325.66;;;24.45;54.46
79129;BME280;68529;43.286;23.360;2023-06-01T09:00:19;99326.78;;;24.52;55.48
79129;BME280;68529;43.286;23.360;2023-06-01T09:02:45;99328.06;;;24.57;55.16
79129;BME280;68529;43.286;23.360;2023-06-01T09:05:12;99322.56;;;24.59;54.80
79129;BME280;68529;43.286;23.360;2023-06-01T09:07:39;99319.50;;;24.73;54.14
79129;BME280;68529;43.286;23.360;2023-06-01T09:10:05;99318.81;;;24.80;53.50
79129;BME280;68529;43.286;23.360;2023-06-01T09:12:31;99314.50;;;24.68;53.84
79129;BME280;68529;43.286;23.360;2023-06-01T09:15:09;99317.50;;;24.75;53.08
79129;BME280;68529;43.286;23.360;2023-06-01T09:17:35;99325.13;;;24.70;53.84
79129;BME280;68529;43.286;23.360;2023-06-01T09:20:01;99321.91;;;24.76;53.93
79129;BME280;68529;43.286;23.360;2023-06-01T09:22:45;99318.53;;;24.83;54.30
79129;BME280;68529;43.286;23.360;2023-06-01T09:25:12;99314.72;;;24.86;54.11
79129;BME280;68529;43.286;23.360;2023-06-01T09:27:59;99315.00;;;24.83;54.13
79129;BME280;68529;43.286;23.360;2023-06-01T09:30:37;99320.53;;;24.81;54.72
79129;BME280;68529;43.286;23.360;2023-06-01T09:33:16;99309.88;;;24.99;54.63
79129;BME280;68529;43.286;23.360;2023-06-01T09:35:47;99312.31;;;25.12;54.56
79129;BME280;68529;43.286;23.360;2023-06-01T09:38:21;99303.97;;;25.15;54.17
79129;BME280;68529;43.286;23.360;2023-06-01T09:41:07;99314.69;;;25.24;53.85
79129;BME280;68529;43.286;23.360;2023-06-01T09:43:35;99310.28;;;25.33;54.05
79129;BME280;68529;43.286;23.360;2023-06-01T09:48:32;99312.56;;;25.47;54.31
79129;BME280;68529;43.286;23.360;2023-06-01T09:50:58;99301.22;;;25.53;53.21
79129;BME280;68529;43.286;23.360;2023-06-01T09:53:24;99298.00;;;25.77;52.91
79129;BME280;68529;43.286;23.360;2023-06-01T09:56:00;99294.06;;;26.08;52.64
79129;BME280;68529;43.286;23.360;2023-06-01T09:58:26;99291.25;;;26.37;53.08
79129;BME280;68529;43.286;23.360;2023-06-01T10:00:52;99297.41;;;26.47;51.76
79129;BME280;68529;43.286;23.360;2023-06-01T10:03:18;99286.63;;;26.29;52.15
79129;BME280;68529;43.286;23.360;2023-06-01T10:05:45;99284.69;;;26.12;52.10
79129;BME280;68529;43.286;23.360;2023-06-01T10:08:13;99281.97;;;26.22;52.25
79129;BME280;68529;43.286;23.360;2023-06-01T10:10:40;99282.50;;;25.98;52.34
79129;BME280;68529;43.286;23.360;2023-06-01T10:13:07;99275.25;;;25.71;52.84
79129;BME280;68529;43.286;23.360;2023-06-01T10:15:32;99281.13;;;25.57;53.65
79129;BME280;68529;43.286;23.360;2023-06-01T10:17:59;99280.09;;;25.68;52.77
79129;BME280;68529;43.286;23.360;2023-06-01T10:20:26;99281.56;;;25.89;54.57
79129;BME280;68529;43.286;23.360;2023-06-01T10:22:52;99278.50;;;26.02;53.79
79129;BME280;68529;43.286;23.360;2023-06-01T10:25:18;99277.56;;;25.93;53.42
79129;BME280;68529;43.286;23.360;2023-06-01T10:27:52;99273.66;;;26.15;53.40
79129;BME280;68529;43.286;23.360;2023-06-01T10:30:20;99275.56;;;25.95;51.94
79129;BME280;68529;43.286;23.360;2023-06-01T10:32:46;99271.56;;;25.72;51.97
79129;BME280;68529;43.286;23.360;2023-06-01T10:43:00;99249.75;;;26.02;52.95
79129;BME280;68529;43.286;23.360;2023-06-01T10:45:39;99247.22;;;26.01;52.28
79129;BME280;68529;43.286;23.360;2023-06-01T10:48:06;99244.31;;;25.85;53.55
79129;BME280;68529;43.286;23.360;2023-06-01T10:50:34;99245.22;;;26.03;52.60
79129;BME280;68529;43.286;23.360;2023-06-01T10:53:29;99237.34;;;25.92;52.22
79129;BME280;68529;43.286;23.360;2023-06-01T10:58:42;99221.25;;;26.27;52.56
79129;BME280;68529;43.286;23.360;2023-06-01T11:01:08;99220.16;;;26.65;52.92
79129;BME280;68529;43.286;23.360;2023-06-01T11:03:45;99217.53;;;26.91;52.99
79129;BME280;68529;43.286;23.360;2023-06-01T11:06:30;99206.28;;;27.21;52.64
79129;BME280;68529;43.286;23.360;2023-06-01T11:08:58;99205.44;;;27.21;52.14
79129;BME280;68529;43.286;23.360;2023-06-01T11:14:25;99208.75;;;26.71;51.80
79129;BME280;68529;43.286;23.360;2023-06-01T11:16:54;99193.25;;;26.55;52.36
79129;BME280;68529;43.286;23.360;2023-06-01T11:19:23;99189.13;;;26.43;51.40
79129;BME280;68529;43.286;23.360;2023-06-01T11:21:57;99188.72;;;26.38;52.65
79129;BME280;68529;43.286;23.360;2023-06-01T11:24:36;99187.81;;;26.30;52.68
79129;BME280;68529;43.286;23.360;2023-06-01T11:27:06;99182.88;;;26.25;51.00
79129;BME280;68529;43.286;23.360;2023-06-01T11:29:32;99179.88;;;26.28;51.76
79129;BME280;68529;43.286;23.360;2023-06-01T11:32:00;99180.34;;;26.41;51.82
79129;BME280;68529;43.286;23.360;2023-06-01T11:34:46;99178.19;;;26.45;51.61
79129;BME280;68529;43.286;23.360;2023-06-01T11:37:18;99174.81;;;26.43;51.93
79129;BME280;68529;43.286;23.360;2023-06-01T11:39:45;99171.03;;;26.53;51.89
79129;BME280;68529;43.286;23.360;2023-06-01T11:44:38;99156.16;;;26.49;50.62
79129;BME280;68529;43.286;23.360;2023-06-01T11:47:05;99153.09;;;26.44;52.00
79129;BME280;68529;43.286;23.360;2023-06-01T11:52:08;99146.66;;;26.37;51.81
79129;BME280;68529;43.286;23.360;2023-06-01T11:54:34;99152.03;;;26.37;51.47
79129;BME280;68529;43.286;23.360;2023-06-01T11:57:02;99149.94;;;26.31;51.28
79129;BME280;68529;43.286;23.360;2023-06-01T11:59:36;99152.66;;;26.31;52.03
79129;BME280;68529;43.286;23.360;2023-06-01T12:02:02;99150.94;;;26.30;52.03
79129;BME280;68529;43.286;23.360;2023-06-01T12:04:27;99155.94;;;26.25;51.61
79129;BME280;68529;43.286;23.360;2023-06-01T12:07:06;99148.78;;;26.16;52.51
79129;BME280;68529;43.286;23.360;2023-06-01T12:09:32;99144.13;;;26.18;52.26
79129;BME280;68529;43.286;23.360;2023-06-01T12:11:58;99154.34;;;26.05;52.04
79129;BME280;68529;43.286;23.360;2023-06-01T12:14:24;99154.78;;;25.83;51.82
79129;BME280;68529;43.286;23.360;2023-06-01T12:16:57;99141.53;;;25.54;52.17
79129;BME280;68529;43.286;23.360;2023-06-01T12:19:30;99137.31;;;25.32;52.43
79129;BME280;68529;43.286;23.360;2023-06-01T12:21:58;99142.06;;;25.21;51.97
79129;BME280;68529;43.286;23.360;2023-06-01T12:24:31;99137.94;;;25.26;51.96
79129;BME280;68529;43.286;23.360;2023-06-01T12:26:58;99137.31;;;25.32;52.55
79129;BME280;68529;43.286;23.360;2023-06-01T12:29:35;99128.28;;;25.33;52.69
79129;BME280;68529;43.286;23.360;2023-06-01T12:32:01;99125.47;;;25.25;52.13
79129;BME280;68529;43.286;23.360;2023-06-01T12:34:27;99136.09;;;24.90;51.21
79129;BME280;68529;43.286;23.360;2023-06-01T12:36:53;99122.97;;;24.58;50.94
79129;BME280;68529;43.286;23.360;2023-06-01T12:39:31;99116.91;;;24.47;52.35
79129;BME280;68529;43.286;23.360;2023-06-01T12:42:01;99105.03;;;24.40;51.98
79129;BME280;68529;43.286;23.360;2023-06-01T12:44:27;99094.88;;;24.24;52.50
79129;BME280;68529;43.286;23.360;2023-06-01T12:46:56;99098.00;;;24.19;52.55
79129;BME280;68529;43.286;23.360;2023-06-01T12:49:23;99087.25;;;24.19;52.60
79129;BME280;68529;43.286;23.360;2023-06-01T12:51:49;99095.44;;;24.18;53.13
79129;BME280;68529;43.286;23.360;2023-06-01T12:54:15;99102.22;;;24.22;53.42
79129;BME280;68529;43.286;23.360;2023-06-01T12:56:40;99125.53;;;24.31;53.51
79129;BME280;68529;43.286;23.360;2023-06-01T12:59:06;99128.47;;;24.38;53.68
79129;BME280;68529;43.286;23.360;2023-06-01T13:01:32;99140.50;;;24.33;54.40
79129;BME280;68529;43.286;23.360;2023-06-01T13:03:57;99133.31;;;24.34;55.07
79129;BME280;68529;43.286;23.360;2023-06-01T13:06:23;99126.53;;;24.30;55.02
79129;BME280;68529;43.286;23.360;2023-06-01T13:08:49;99120.03;;;24.23;54.92
79129;BME280;68529;43.286;23.360;2023-06-01T13:11:14;99110.41;;;24.20;55.24
79129;BME280;68529;43.286;23.360;2023-06-01T13:13:40;99117.47;;;24.21;55.33
79129;BME280;68529;43.286;23.360;2023-06-01T13:16:06;99121.44;;;24.17;55.02
79129;BME280;68529;43.286;23.360;2023-06-01T13:18:32;99130.19;;;24.10;55.13
79129;BME280;68529;43.286;23.360;2023-06-01T13:20:58;99136.94;;;24.04;55.47
79129;BME280;68529;43.286;23.360;2023-06-01T13:23:23;99157.97;;;23.99;55.91
79129;BME280;68529;43.286;23.360;2023-06-01T13:25:48;99171.34;;;23.80;56.32
79129;BME280;68529;43.286;23.360;2023-06-01T13:28:14;99178.91;;;23.56;56.75